Terminal Aerodrome Forecast
Issued by NWS Louisville, KY

Home | Current Version | Previous Version | Text Only | Print | Product List | Glossary On
Versions: 1 2 3 4 5 6 7 8 9 10 11 12 13 14 15 16 17 18 19 20 21 22
886
FTUS43 KLMK 171741
TAFBWG
TAF
KBWG 171741Z 1718/1818 15008KT P6SM BKN250
     FM180200 18012KT P6SM OVC070 WS020/20045KT
     FM180500 18015G25KT P6SM OVC060 WS020/20055KT
     FM181100 19016G26KT P6SM VCSH OVC025
     FM181400 19021G30KT P6SM VCSH OVC015 PROB30 1814/1818 4SM -TSRA
      BKN015CB=

USA.gov is the U.S. government's official web portal to all federal, state and local government web resources and services.